createdAt,value
2023-01-23T00:01:36.363Z,5.67
2023-01-23T00:04:05.265Z,5.68
2023-01-23T00:06:35.284Z,5.68
2023-01-23T00:09:03.484Z,5.67
2023-01-23T00:11:32.112Z,5.64
2023-01-23T00:14:01.611Z,5.66
2023-01-23T00:16:32.560Z,5.67
2023-01-23T00:19:01.300Z,5.70
2023-01-23T00:21:31.075Z,5.63
2023-01-23T00:24:02.726Z,5.53
2023-01-23T00:26:33.584Z,5.48
2023-01-23T00:29:02.173Z,5.57
2023-01-23T00:31:32.462Z,5.54
2023-01-23T00:34:02.180Z,5.59
2023-01-23T00:36:32.010Z,5.61
2023-01-23T00:39:01.621Z,5.65
2023-01-23T00:41:29.718Z,5.61
2023-01-23T00:43:57.839Z,5.61
2023-01-23T00:46:26.354Z,5.65
2023-01-23T00:48:54.493Z,5.52
2023-01-23T00:51:22.974Z,5.55
2023-01-23T00:53:51.411Z,5.59
2023-01-23T00:56:20.986Z,5.64
2023-01-23T00:58:49.029Z,5.55
2023-01-23T01:01:18.189Z,5.41
2023-01-23T01:03:46.996Z,5.58
2023-01-23T01:06:17.674Z,5.50
2023-01-23T01:08:45.785Z,5.41
2023-01-23T01:11:13.920Z,5.50
2023-01-23T01:13:44.523Z,5.53
2023-01-23T01:16:13.157Z,5.61
2023-01-23T01:18:41.364Z,5.52
2023-01-23T01:21:10.914Z,5.61
2023-01-23T01:23:39.990Z,5.57
2023-01-23T01:26:08.742Z,5.49
2023-01-23T01:28:38.172Z,5.40
2023-01-23T01:31:10.520Z,5.51
2023-01-23T01:33:39.225Z,5.54
2023-01-23T01:36:10.672Z,5.48
2023-01-23T01:38:39.820Z,5.57
2023-01-23T01:41:08.793Z,5.61
2023-01-23T01:43:37.774Z,5.64
2023-01-23T01:46:21.155Z,5.58
2023-01-23T01:48:55.725Z,5.64
2023-01-23T01:51:30.005Z,5.75
2023-01-23T01:54:04.676Z,5.62
2023-01-23T01:56:37.659Z,5.61
2023-01-23T01:59:07.368Z,5.58
2023-01-23T02:01:37.413Z,5.51
2023-01-23T02:04:08.972Z,5.49
2023-01-23T02:06:37.258Z,5.50
2023-01-23T02:09:12.064Z,5.35
2023-01-23T02:11:40.385Z,5.47
2023-01-23T02:14:08.778Z,5.49
2023-01-23T02:16:43.814Z,5.52
2023-01-23T02:19:25.785Z,5.38
2023-01-23T02:22:02.463Z,5.46
2023-01-23T02:24:37.162Z,5.43
2023-01-23T02:27:07.434Z,5.49
2023-01-23T02:29:44.190Z,5.44
2023-01-23T02:32:12.720Z,5.58
2023-01-23T02:34:41.311Z,5.58
2023-01-23T02:37:10.364Z,5.66
2023-01-23T02:39:39.659Z,5.58
2023-01-23T02:42:11.326Z,5.53
2023-01-23T02:44:45.808Z,5.51
2023-01-23T02:47:15.765Z,5.43
2023-01-23T02:49:44.186Z,5.63
2023-01-23T02:52:12.553Z,5.52
2023-01-23T02:54:40.889Z,5.53
2023-01-23T02:57:10.880Z,5.59
2023-01-23T02:59:57.573Z,5.61
2023-01-23T03:02:27.106Z,5.60
2023-01-23T03:04:55.492Z,5.55
2023-01-23T03:07:23.536Z,5.54
2023-01-23T03:09:51.615Z,5.61
2023-01-23T03:12:22.275Z,5.61
2023-01-23T03:14:54.293Z,5.51
2023-01-23T03:17:22.788Z,5.56
2023-01-23T03:19:51.097Z,5.25
2023-01-23T03:22:19.342Z,5.25
2023-01-23T03:24:47.376Z,5.36
2023-01-23T03:27:15.911Z,5.37
2023-01-23T03:30:07.434Z,5.40
2023-01-23T03:32:36.741Z,5.31
2023-01-23T03:35:05.178Z,5.20
2023-01-23T03:37:33.362Z,5.25
2023-01-23T03:40:20.280Z,5.31
2023-01-23T03:42:48.972Z,5.36
2023-01-23T03:45:25.844Z,5.43
2023-01-23T03:47:54.093Z,5.47
2023-01-23T03:50:22.473Z,5.38
2023-01-23T03:52:50.772Z,5.42
2023-01-23T03:55:19.329Z,5.45
2023-01-23T03:57:48.390Z,5.48
2023-01-23T04:00:20.086Z,5.50
2023-01-23T04:02:57.622Z,5.46
2023-01-23T04:05:26.004Z,5.45
2023-01-23T04:07:54.094Z,5.41
2023-01-23T04:10:22.499Z,5.39
2023-01-23T04:12:55.046Z,5.41
2023-01-23T04:15:24.060Z,5.44
2023-01-23T04:17:54.762Z,5.45
2023-01-23T04:20:26.534Z,5.39
2023-01-23T04:22:55.452Z,5.37
2023-01-23T04:25:24.068Z,5.30
2023-01-23T04:27:52.155Z,5.35
2023-01-23T04:30:21.705Z,5.27
2023-01-23T04:32:49.975Z,5.39
2023-01-23T04:35:20.133Z,5.41
2023-01-23T04:37:50.000Z,5.43
2023-01-23T04:40:18.882Z,5.50
2023-01-23T04:42:57.194Z,5.45
2023-01-23T04:45:38.075Z,5.35
2023-01-23T04:48:25.974Z,5.41
2023-01-23T04:50:54.980Z,5.47
2023-01-23T04:53:24.631Z,5.45
2023-01-23T04:55:59.362Z,5.49
2023-01-23T04:58:27.754Z,5.48
2023-01-23T05:01:03.791Z,5.45
2023-01-23T05:03:35.270Z,5.39
2023-01-23T05:06:03.631Z,5.26
2023-01-23T05:08:33.261Z,5.33
2023-01-23T05:11:14.090Z,5.21
2023-01-23T05:13:42.392Z,5.39
2023-01-23T05:16:10.739Z,5.37
2023-01-23T05:18:58.932Z,5.38
2023-01-23T05:21:27.937Z,5.22
2023-01-23T05:23:57.386Z,5.14
2023-01-23T05:26:25.997Z,5.21
2023-01-23T05:28:55.767Z,5.32
2023-01-23T05:31:24.159Z,5.35
2023-01-23T05:34:12.204Z,4.96
2023-01-23T05:36:41.397Z,5.02
2023-01-23T05:39:11.639Z,5.21
2023-01-23T05:41:39.857Z,5.14
2023-01-23T05:44:36.992Z,5.27
2023-01-23T05:47:10.759Z,5.23
2023-01-23T05:49:39.360Z,5.29
2023-01-23T05:52:07.966Z,5.17
2023-01-23T05:54:37.582Z,5.24
2023-01-23T05:57:05.896Z,5.11
2023-01-23T05:59:52.656Z,5.28
2023-01-23T06:02:39.677Z,5.24
2023-01-23T06:05:08.932Z,5.31
2023-01-23T06:07:57.049Z,5.25
2023-01-23T06:10:26.647Z,5.28
2023-01-23T06:12:54.746Z,5.43
2023-01-23T06:15:23.943Z,5.42
2023-01-23T06:17:55.511Z,5.36
2023-01-23T06:20:25.279Z,5.43
2023-01-23T06:22:53.491Z,5.40
2023-01-23T06:25:22.993Z,5.41
2023-01-23T06:27:55.338Z,5.41
2023-01-23T06:30:25.515Z,5.47
2023-01-23T06:32:53.749Z,5.50
2023-01-23T06:35:28.491Z,5.28
2023-01-23T06:37:56.837Z,5.33
2023-01-23T06:40:25.710Z,5.28
2023-01-23T06:43:22.856Z,5.41
2023-01-23T06:45:52.331Z,5.38
2023-01-23T06:48:20.925Z,5.40
2023-01-23T06:50:49.819Z,5.36
2023-01-23T06:53:19.181Z,5.39
2023-01-23T06:55:49.076Z,5.47
2023-01-23T06:58:18.823Z,5.36
2023-01-23T07:00:48.501Z,5.49
2023-01-23T07:03:36.689Z,5.38
2023-01-23T07:06:07.155Z,5.43
2023-01-23T07:08:36.188Z,5.29
2023-01-23T07:11:04.801Z,5.36
2023-01-23T07:13:33.672Z,5.22
2023-01-23T07:16:04.092Z,5.31
2023-01-23T07:18:33.302Z,5.39
2023-01-23T07:21:06.116Z,5.45
2023-01-23T07:23:34.840Z,5.39
2023-01-23T07:26:04.720Z,5.38
2023-01-23T07:28:34.074Z,5.51
2023-01-23T07:31:04.322Z,5.06
2023-01-23T07:33:33.201Z,5.05
2023-01-23T07:36:01.325Z,5.37
2023-01-23T07:38:29.487Z,5.24
2023-01-23T07:41:00.317Z,5.46
2023-01-23T07:43:28.790Z,5.56
2023-01-23T07:46:00.969Z,5.42
2023-01-23T07:48:30.937Z,5.23
2023-01-23T07:51:03.035Z,5.34
2023-01-23T07:53:32.084Z,5.53
2023-01-23T07:56:00.521Z,5.47
2023-01-23T07:58:28.813Z,5.52
2023-01-23T08:00:56.870Z,5.64
2023-01-23T08:03:29.295Z,5.45
2023-01-23T08:05:59.814Z,5.61
2023-01-23T08:08:27.952Z,5.75
2023-01-23T08:10:56.005Z,5.80
2023-01-23T08:13:24.260Z,5.81
2023-01-23T08:15:53.471Z,5.67
2023-01-23T08:18:21.731Z,5.69
2023-01-23T08:20:54.848Z,5.60
2023-01-23T08:23:25.717Z,5.85
2023-01-23T08:25:54.906Z,5.84
2023-01-23T08:28:23.608Z,5.85
2023-01-23T08:30:52.561Z,5.57
2023-01-23T08:33:21.425Z,5.70
2023-01-23T08:35:51.087Z,5.84
2023-01-23T08:38:20.585Z,5.87
2023-01-23T08:40:51.298Z,5.79
2023-01-23T08:43:20.727Z,5.68
2023-01-23T08:45:51.336Z,5.51
2023-01-23T08:48:20.448Z,5.74
2023-01-23T08:50:48.703Z,5.59
2023-01-23T08:53:17.746Z,5.61
2023-01-23T08:55:45.854Z,5.86
2023-01-23T08:58:15.383Z,5.72
2023-01-23T09:00:43.557Z,5.88
2023-01-23T09:03:11.674Z,5.92
2023-01-23T09:05:39.846Z,5.81
2023-01-23T09:08:07.920Z,5.62
2023-01-23T09:10:36.501Z,5.91
2023-01-23T09:13:05.296Z,5.90
2023-01-23T09:15:34.803Z,5.87
2023-01-23T09:18:02.826Z,6.03
2023-01-23T09:20:31.029Z,5.57
2023-01-23T09:22:59.102Z,5.75
2023-01-23T09:25:27.224Z,5.39
2023-01-23T09:27:55.332Z,4.20
2023-01-23T09:30:23.687Z,4.35
2023-01-23T09:32:54.802Z,4.34
2023-01-23T09:35:23.587Z,4.08
2023-01-23T09:38:00.929Z,4.20
2023-01-23T09:40:32.175Z,4.61
2023-01-23T09:43:03.955Z,4.39
2023-01-23T09:45:33.874Z,5.05
2023-01-23T09:48:14.723Z,4.61
2023-01-23T09:50:55.522Z,4.23
2023-01-23T09:53:26.937Z,5.11
2023-01-23T09:56:01.152Z,5.28
2023-01-23T09:58:36.340Z,5.53
2023-01-23T10:01:04.686Z,5.76
2023-01-23T10:03:34.247Z,5.86
2023-01-23T10:06:14.128Z,6.06
2023-01-23T10:08:58.701Z,6.34
2023-01-23T10:11:36.795Z,6.36
2023-01-23T10:14:21.105Z,6.45
2023-01-23T10:17:03.214Z,6.23
2023-01-23T10:19:48.784Z,6.37
2023-01-23T10:22:33.714Z,6.35
2023-01-23T10:25:04.924Z,6.55
2023-01-23T10:27:38.374Z,6.62
2023-01-23T10:30:17.393Z,6.56
2023-01-23T10:32:50.619Z,6.32
2023-01-23T10:35:24.982Z,6.45
2023-01-23T10:38:01.902Z,6.42
2023-01-23T10:40:47.316Z,6.57
2023-01-23T10:43:17.725Z,6.56
2023-01-23T10:45:47.376Z,6.64
2023-01-23T10:48:49.611Z,6.62
2023-01-23T10:51:33.745Z,6.34
2023-01-23T10:54:29.612Z,6.37
2023-01-23T10:57:01.260Z,6.27
2023-01-23T10:59:33.263Z,6.43
2023-01-23T11:02:20.932Z,6.16
2023-01-23T11:04:51.840Z,6.42
2023-01-23T11:07:23.417Z,6.53
2023-01-23T11:09:55.036Z,6.54
2023-01-23T11:12:24.803Z,6.54
2023-01-23T11:15:11.878Z,6.39
2023-01-23T11:17:40.577Z,6.31
2023-01-23T11:20:13.630Z,6.22
2023-01-23T11:22:43.293Z,6.37
2023-01-23T11:25:37.952Z,5.81
2023-01-23T11:28:23.484Z,5.30
2023-01-23T11:31:12.428Z,5.50
2023-01-23T11:33:47.918Z,5.80
2023-01-23T11:36:36.094Z,5.54
2023-01-23T11:39:17.776Z,5.39
2023-01-23T11:41:47.406Z,5.49
2023-01-23T11:44:19.133Z,5.39
2023-01-23T11:47:13.667Z,5.51
2023-01-23T11:50:02.417Z,5.33
2023-01-23T11:52:47.927Z,5.29
2023-01-23T11:55:42.745Z,5.81
2023-01-23T11:58:24.378Z,5.53
2023-01-23T12:01:06.875Z,5.24
2023-01-23T12:03:59.367Z,5.38
2023-01-23T12:06:40.558Z,5.63
2023-01-23T12:09:14.252Z,5.65
2023-01-23T12:11:58.460Z,5.60
2023-01-23T12:14:32.136Z,5.64
2023-01-23T12:17:13.858Z,5.53
2023-01-23T12:20:08.639Z,5.61
2023-01-23T12:22:52.106Z,6.07
2023-01-23T12:25:31.062Z,5.72
2023-01-23T12:28:07.130Z,6.23
2023-01-23T12:31:02.608Z,6.38
2023-01-23T12:34:02.934Z,6.27
2023-01-23T12:37:14.180Z,6.52
2023-01-23T12:40:08.451Z,6.64
2023-01-23T12:42:43.521Z,6.56
2023-01-23T12:45:21.838Z,6.45
2023-01-23T12:47:56.667Z,6.54
2023-01-23T12:50:38.686Z,6.79
2023-01-23T12:53:11.008Z,6.80
2023-01-23T12:55:44.419Z,6.52
2023-01-23T12:58:17.262Z,6.49
2023-01-23T13:00:56.046Z,6.40
2023-01-23T13:03:46.115Z,6.51
2023-01-23T13:06:47.277Z,6.68
2023-01-23T13:09:25.822Z,6.81
2023-01-23T13:12:11.613Z,6.78
2023-01-23T13:15:06.840Z,6.63
2023-01-23T13:17:39.130Z,6.65
2023-01-23T13:20:48.449Z,6.72
2023-01-23T13:23:29.687Z,6.24
2023-01-23T13:26:30.016Z,6.38
2023-01-23T13:29:02.325Z,6.47
2023-01-23T13:31:41.447Z,6.52
2023-01-23T13:34:41.656Z,6.45
2023-01-23T13:37:47.115Z,6.60
2023-01-23T13:40:17.678Z,6.24
2023-01-23T13:42:46.314Z,6.44
2023-01-23T13:45:28.713Z,6.42
2023-01-23T14:22:38.089Z,6.32
2023-01-23T14:25:17.659Z,6.31
2023-01-23T14:27:54.439Z,6.33
2023-01-23T14:30:26.943Z,6.33
2023-01-23T14:33:18.859Z,6.28
2023-01-23T14:35:48.042Z,6.08
2023-01-23T14:38:23.265Z,6.15
2023-01-23T14:40:52.930Z,5.80
2023-01-23T14:43:23.959Z,5.94
2023-01-23T14:45:59.702Z,6.11
2023-01-23T14:48:29.202Z,5.75
2023-01-23T14:51:06.430Z,5.89
2023-01-23T14:53:34.603Z,5.98
2023-01-23T14:56:04.215Z,6.07
2023-01-23T14:58:33.998Z,6.21
2023-01-23T15:01:03.175Z,6.16
2023-01-23T15:03:43.129Z,6.16
2023-01-23T15:06:16.894Z,6.06
2023-01-23T15:08:45.400Z,5.91
2023-01-23T15:11:15.504Z,5.91
2023-01-23T15:13:54.811Z,6.06
2023-01-23T15:16:25.014Z,6.04
2023-01-23T15:18:58.619Z,5.69
2023-01-23T15:21:30.161Z,5.90
2023-01-23T15:24:04.487Z,5.89
2023-01-23T15:26:36.627Z,5.97
2023-01-23T15:29:19.419Z,5.92
2023-01-23T15:31:50.283Z,5.79
2023-01-23T15:34:25.881Z,5.97
2023-01-23T15:36:57.888Z,5.99
2023-01-23T15:39:29.560Z,5.84
2023-01-23T15:42:02.273Z,6.01
2023-01-23T15:44:32.117Z,5.89
2023-01-23T15:47:03.923Z,5.98
2023-01-23T15:49:33.639Z,6.02
2023-01-23T15:52:03.999Z,6.18
2023-01-23T15:54:34.682Z,6.14
2023-01-23T15:57:08.707Z,5.89
2023-01-23T15:59:38.094Z,6.05
2023-01-23T16:02:12.927Z,6.02
2023-01-23T16:04:47.339Z,6.09
2023-01-23T16:07:24.617Z,6.01
2023-01-23T16:09:55.179Z,6.04
2023-01-23T16:12:29.747Z,6.14
2023-01-23T16:14:58.366Z,6.02
2023-01-23T16:17:26.534Z,6.20
2023-01-23T16:19:55.657Z,6.03
2023-01-23T16:22:29.212Z,5.97
2023-01-23T16:24:58.950Z,5.83
2023-01-23T16:27:28.545Z,6.02
2023-01-23T16:29:57.402Z,5.86
2023-01-23T16:32:26.225Z,5.79
2023-01-23T16:34:54.451Z,5.89
2023-01-23T16:37:22.868Z,5.84
2023-01-23T16:39:51.115Z,5.83
2023-01-23T16:42:22.414Z,5.80
2023-01-23T16:44:52.375Z,5.88
2023-01-23T16:47:20.571Z,5.93
2023-01-23T16:49:53.748Z,6.03
2023-01-23T16:52:26.469Z,5.91
2023-01-23T16:54:55.817Z,5.95
2023-01-23T16:57:24.789Z,5.89
2023-01-23T16:59:56.523Z,5.75
2023-01-23T17:02:30.412Z,5.89
2023-01-23T17:04:58.847Z,5.77
2023-01-23T17:07:26.952Z,5.84
2023-01-23T17:09:55.018Z,5.63
2023-01-23T17:12:27.651Z,5.87
2023-01-23T17:14:58.235Z,5.83
2023-01-23T17:17:31.224Z,5.71
2023-01-23T17:20:01.347Z,5.81
2023-01-23T17:22:31.575Z,5.79
2023-01-23T17:25:00.043Z,6.00
2023-01-23T17:27:28.087Z,5.73
2023-01-23T17:29:57.597Z,5.72
2023-01-23T17:32:31.615Z,5.76
2023-01-23T17:35:02.776Z,5.76
2023-01-23T17:37:31.874Z,5.85
2023-01-23T17:40:00.024Z,5.71
2023-01-23T17:42:28.281Z,5.86
2023-01-23T17:44:57.937Z,5.80
2023-01-23T17:47:26.245Z,5.71
2023-01-23T17:49:55.502Z,5.70
2023-01-23T17:52:25.025Z,5.72
2023-01-23T17:54:54.482Z,5.53
2023-01-23T17:57:22.884Z,5.83
2023-01-23T17:59:51.042Z,5.71
2023-01-23T18:02:29.091Z,5.65
2023-01-23T18:04:57.504Z,5.79
2023-01-23T18:07:25.619Z,5.87
2023-01-23T18:09:59.424Z,5.62
2023-01-23T18:12:35.097Z,5.68
2023-01-23T18:15:12.422Z,5.53
2023-01-23T18:17:48.715Z,5.71
2023-01-23T18:20:21.745Z,5.63
2023-01-23T18:22:51.080Z,5.72
2023-01-23T18:25:21.823Z,5.75
2023-01-23T18:27:55.168Z,5.76
2023-01-23T18:30:46.097Z,5.95
2023-01-23T18:33:37.566Z,5.93
2023-01-23T18:36:19.614Z,5.41
2023-01-23T18:39:07.190Z,5.65
2023-01-23T18:41:35.815Z,5.77
2023-01-23T18:44:08.648Z,5.66
2023-01-23T18:46:37.350Z,5.63
2023-01-23T18:49:07.391Z,5.63
2023-01-23T18:51:40.631Z,5.71
2023-01-23T18:54:21.077Z,5.74
2023-01-23T18:56:58.968Z,5.68
2023-01-23T18:59:36.821Z,5.79
2023-01-23T19:02:22.152Z,5.69
2023-01-23T19:05:02.234Z,5.68
2023-01-23T19:07:30.669Z,5.68
2023-01-23T19:09:59.366Z,5.36
2023-01-23T19:12:35.826Z,5.46
2023-01-23T19:15:20.050Z,5.69
2023-01-23T19:17:52.385Z,5.35
2023-01-23T19:20:27.521Z,5.50
2023-01-23T19:23:27.493Z,5.56
2023-01-23T19:25:56.105Z,5.64
2023-01-23T19:28:24.824Z,5.62
2023-01-23T19:30:53.501Z,5.63
2023-01-23T19:33:22.187Z,5.71
2023-01-23T19:35:54.982Z,5.70
2023-01-23T19:38:23.647Z,5.61
2023-01-23T19:40:51.884Z,5.67
2023-01-23T19:43:20.325Z,5.59
2023-01-23T19:45:48.732Z,5.77
2023-01-23T19:48:16.862Z,5.68
2023-01-23T19:50:45.235Z,5.60
2023-01-23T19:53:17.046Z,5.70
2023-01-23T19:55:45.254Z,5.71
2023-01-23T19:58:13.353Z,5.74
2023-01-23T20:00:41.594Z,5.65
2023-01-23T20:03:13.841Z,5.68
2023-01-23T20:05:42.007Z,5.70
2023-01-23T20:08:10.315Z,5.58
2023-01-23T20:10:39.995Z,5.66
2023-01-23T20:13:08.800Z,5.59
2023-01-23T20:15:36.931Z,5.66
2023-01-23T20:18:05.342Z,5.61
2023-01-23T20:20:33.679Z,5.69
2023-01-23T20:23:01.806Z,5.71
2023-01-23T20:25:29.989Z,5.89
2023-01-23T20:27:59.554Z,5.85
2023-01-23T20:30:33.018Z,5.90
2023-01-23T20:33:05.397Z,5.95
2023-01-23T20:35:33.623Z,6.09
2023-01-23T20:38:01.696Z,5.89
2023-01-23T20:40:29.809Z,5.64
2023-01-23T20:42:59.266Z,5.84
2023-01-23T20:45:27.500Z,5.94
2023-01-23T20:47:58.010Z,5.75
2023-01-23T20:50:26.285Z,5.76
2023-01-23T20:53:11.413Z,5.81
2023-01-23T20:55:39.483Z,5.77
2023-01-23T20:58:26.612Z,5.82
2023-01-23T21:00:54.760Z,5.70
2023-01-23T21:03:22.819Z,5.81
2023-01-23T21:05:50.970Z,5.89
2023-01-23T21:08:19.074Z,5.95
2023-01-23T21:10:47.143Z,6.17
2023-01-23T21:13:16.742Z,5.99
2023-01-23T21:15:44.867Z,6.08
2023-01-23T21:18:13.053Z,6.07
2023-01-23T21:20:41.147Z,6.22
2023-01-23T21:23:09.368Z,6.12
2023-01-23T21:25:55.295Z,6.36
2023-01-23T21:28:39.399Z,6.28
2023-01-23T21:31:23.419Z,6.26
2023-01-23T21:33:56.889Z,6.17
2023-01-23T21:36:29.844Z,6.23
2023-01-23T21:38:58.846Z,6.25
2023-01-23T21:41:26.974Z,6.04
2023-01-23T21:44:10.039Z,5.93
2023-01-23T21:46:48.420Z,5.99
2023-01-23T21:49:16.738Z,5.76
2023-01-23T21:51:45.793Z,5.77
2023-01-23T21:54:13.985Z,5.74
2023-01-23T21:56:42.030Z,5.80
2023-01-23T21:59:12.357Z,5.81
2023-01-23T22:01:42.756Z,5.90
2023-01-23T22:04:12.808Z,5.94
2023-01-23T22:06:46.119Z,5.89
2023-01-23T22:09:23.933Z,5.88
2023-01-23T22:11:54.305Z,5.85
2023-01-23T22:14:24.102Z,5.80
2023-01-23T22:16:52.428Z,5.86
2023-01-23T22:19:25.332Z,5.86
2023-01-23T22:21:54.857Z,5.87
2023-01-23T22:24:23.086Z,5.95
2023-01-23T22:26:51.192Z,5.85
2023-01-23T22:29:19.338Z,5.86
2023-01-23T22:31:48.928Z,5.85
2023-01-23T22:34:17.115Z,5.88
2023-01-23T22:36:45.148Z,5.64
2023-01-23T22:39:16.184Z,5.79
2023-01-23T22:41:46.242Z,5.68
2023-01-23T22:44:15.129Z,5.91
2023-01-23T22:46:43.561Z,5.95
2023-01-23T22:49:13.158Z,5.99
2023-01-23T22:51:41.219Z,6.07
2023-01-23T22:54:09.562Z,6.03
2023-01-23T22:56:37.652Z,5.90
2023-01-23T22:59:05.935Z,6.07
2023-01-23T23:01:34.067Z,5.97
2023-01-23T23:04:02.309Z,5.90
2023-01-23T23:06:31.843Z,5.90
2023-01-23T23:09:00.047Z,5.50
2023-01-23T23:11:29.533Z,5.54
2023-01-23T23:13:58.801Z,5.54
2023-01-23T23:16:31.048Z,5.85
2023-01-23T23:19:01.673Z,5.81
2023-01-23T23:21:35.718Z,5.71
2023-01-23T23:24:05.503Z,5.82
2023-01-23T23:26:33.911Z,5.79
2023-01-23T23:29:02.846Z,5.79
2023-01-23T23:31:31.704Z,5.87
2023-01-23T23:34:00.073Z,5.75
2023-01-23T23:36:28.702Z,5.97
2023-01-23T23:38:58.263Z,5.84
2023-01-23T23:41:26.539Z,5.92
2023-01-23T23:43:54.723Z,5.72
2023-01-23T23:46:22.829Z,5.88
2023-01-23T23:48:51.068Z,6.03
2023-01-23T23:51:20.075Z,5.97
2023-01-23T23:53:48.347Z,5.76
2023-01-23T23:56:22.071Z,5.74
2023-01-23T23:58:50.768Z,5.83
